Latest Weather Observations for Robe Airport

IDS60801

Issued at 10:02 pm CDT Saturday 31 January 2015 (issued every 30 minutes, with the page automatically refreshed every 10 minutes)

About weather observations | Map of weather stations | Latest weather observations for SA | Other Formats
Station Details ID: 026105 Name: ROBE AIRFIELD Lat: -37.18 Lon: 139.81 Height: 3.0 m
Data from the previous 72 hours. | See also: Recent months at Robe Airport
Date/Time
CDT
Temp
°C
App
Temp
°C
Dew
Point
Rel
Hum
%
Delta-T
°C
Wind Press
QNH
hPa
Press
MSL
hPa
Rain
since 9 am
mm
Dir
 
Spd
km/h
Gust
km/h
Spd
kts
Gust
kts
31/10:00pm 14.0 10.4 9.8 76 2.2 SSE 19 24 10 13 1017.6 1017.6 0.0
31/09:30pm 14.5 10.9 10.5 77 2.1 SSE 20 26 11 14 1017.4 1017.4 0.0
31/09:00pm 14.5 10.5 10.3 76 2.2 SSE 22 33 12 18 1017.2 1017.2 0.0
31/08:30pm 14.9 10.6 10.7 76 2.2 SSE 24 37 13 20 1017.1 1017.1 0.0
31/08:00pm 15.3 10.2 10.7 74 2.4 SSE 28 41 15 22 1017.0 1017.0 0.0
31/07:30pm 16.0 11.1 11.4 74 2.5 S 28 37 15 20 1016.9 1016.9 0.0
31/07:00pm 16.6 10.9 11.3 71 2.9 S 32 43 17 23 1016.6 1016.6 0.0
31/06:30pm 17.1 10.4 10.9 67 3.3 S 37 50 20 27 1016.3 1016.3 0.0
31/06:00pm 17.9 11.2 9.8 59 4.3 S 35 46 19 25 1016.3 1016.3 0.0
31/05:30pm 17.8 11.9 10.4 62 3.9 S 32 50 17 27 1016.1 1016.1 0.0
31/05:19pm 18.0 12.1 10.6 62 4.0 S 32 50 17 27 1016.3 1016.3 0.0
31/05:00pm 17.9 11.5 9.3 57 4.5 S 33 46 18 25 1016.3 1016.3 0.0
31/04:30pm 18.3 11.8 9.1 55 4.8 SSE 33 48 18 26 1016.2 1016.2 0.0
31/04:00pm 20.0 14.2 10.7 55 5.1 S 32 48 17 26 1016.4 1016.4 0.0
31/03:53pm 20.0 14.5 11.8 59 4.5 S 32 50 17 27 1016.4 1016.4 0.0
31/03:30pm 18.2 12.3 10.6 61 4.1 S 32 44 17 24 1016.5 1016.5 0.0
31/03:14pm 19.4 13.2 9.3 52 5.3 S 32 52 17 28 1016.4 1016.4 0.0
31/03:00pm 19.5 12.7 9.1 51 5.5 S 35 48 19 26 1016.5 1016.5 0.0
31/02:30pm 20.1 12.8 8.8 48 5.9 S 37 50 20 27 1016.5 1016.5 0.0
31/02:00pm 20.3 14.0 11.0 55 5.1 S 35 46 19 25 1016.5 1016.5 0.0
31/01:30pm 19.1 12.6 10.4 57 4.7 S 35 46 19 25 1016.6 1016.6 0.0
31/01:03pm 18.9 13.0 10.5 58 4.5 SSE 32 50 17 27 1016.8 1016.8 0.0
31/01:00pm 19.4 13.6 10.7 57 4.7 SSE 32 46 17 25 1016.9 1016.9 0.0
31/12:30pm 16.5 10.3 11.4 72 2.7 SSE 35 54 19 29 1017.3 1017.3 0.0
31/12:29pm 16.5 10.6 11.2 71 2.8 SSE 33 54 18 29 1017.3 1017.3 0.0
31/12:00pm 17.8 12.6 11.6 67 3.4 S 30 41 16 22 1017.5 1017.5 0.0
31/11:30am 17.9 13.1 11.5 66 3.5 S 28 41 15 22 1017.6 1017.6 0.0
31/11:00am 17.7 13.1 11.0 65 3.6 SSE 26 35 14 19 1017.4 1017.4 0.0
31/10:30am 17.4 13.7 11.4 68 3.3 SSE 22 37 12 20 1017.3 1017.3 0.0
31/10:00am 16.9 13.1 11.2 69 3.1 SSE 22 32 12 17 1017.3 1017.3 0.0
31/09:30am 17.0 13.8 11.3 69 3.1 SSE 19 28 10 15 1017.4 1017.4 0.0
31/09:00am 16.3 12.5 11.2 72 2.7 SSE 22 30 12 16 1017.4 1017.4 0.0
31/08:30am 16.3 12.8 11.0 71 2.8 SSE 20 30 11 16 1017.3 1017.3 0.0
31/08:00am 15.8 12.3 11.0 73 2.6 SSE 20 30 11 16 1016.6 1016.6 0.0
31/07:30am 15.4 12.0 11.4 77 2.1 SSE 20 30 11 16 1016.1 1016.1 0.0
31/07:00am 15.1 11.9 11.3 78 2.0 SSE 19 32 10 17 1015.7 1015.7 0.0
31/06:30am 15.2 11.9 10.8 75 2.3 SSE 19 24 10 13 1015.2 1015.2 0.0
31/06:00am 15.3 12.0 10.9 75 2.3 SSE 19 28 10 15 1015.2 1015.2 0.0
31/05:30am 15.0 12.2 11.2 78 2.0 SE 17 24 9 13 1015.4 1015.4 0.0
31/05:00am 15.2 10.6 11.0 76 2.2 SSE 26 43 14 23 1015.1 1015.1 0.0
31/04:30am 15.1 12.0 11.7 80 1.8 SSE 19 28 10 15 1015.6 1015.6 0.0
31/04:00am 14.7 11.1 11.8 83 1.6 SE 22 35 12 19 1015.9 1015.9 0.0
31/03:30am 14.9 11.1 11.3 79 1.9 SSE 22 32 12 17 1015.6 1015.6 0.0
31/03:00am 15.1 11.3 11.1 77 2.1 SSE 22 32 12 17 1015.7 1015.7 0.0
31/02:30am 15.0 12.2 11.2 78 2.0 SSE 17 24 9 13 1016.0 1016.0 0.0
31/02:00am 14.8 11.5 11.0 78 2.0 SSE 19 26 10 14 1016.1 1016.1 0.0
31/01:30am 14.7 11.9 11.3 80 1.8 SSE 17 24 9 13 1016.1 1016.1 0.0
31/01:00am 14.9 11.8 11.7 81 1.7 SSE 19 28 10 15 1016.3 1016.3 0.0
31/12:30am 14.9 12.3 12.0 83 1.6 SE 17 22 9 12 1016.4 1016.4 0.0
31/12:00am 14.7 12.5 12.0 84 1.5 SE 15 24 8 13 1016.5 1016.5 0.0
 
Date/Time
CDT
Temp
°C
App
Temp
°C
Dew
Point
Rel
Hum
%
Delta-T
°C
Wind Press
QNH
hPa
Press
MSL
hPa
Rain
since 9 am
mm
Dir
 
Spd
km/h
Gust
km/h
Spd
kts
Gust
kts
30/11:30pm 14.4 12.0 11.4 82 1.6 SE 15 20 8 11 1016.6 1016.6 0.0
30/11:00pm 14.8 12.0 11.4 80 1.8 SE 17 24 9 13 1016.5 1016.5 0.0
30/10:30pm 15.1 11.7 11.3 78 2.0 SE 20 30 11 16 1016.6 1016.6 0.0
30/10:00pm 15.3 11.1 11.1 76 2.2 SSE 24 35 13 19 1016.7 1016.7 0.0
30/09:30pm 15.3 11.0 10.9 75 2.3 SSE 24 35 13 19 1016.7 1016.7 0.0
30/09:00pm 15.3 10.5 10.3 72 2.6 SSE 26 33 14 18 1016.6 1016.6 0.0
30/08:30pm 15.5 10.7 10.3 71 2.7 SSE 26 37 14 20 1016.4 1016.4 0.0
30/08:00pm 16.1 10.3 9.5 65 3.4 SSE 30 46 16 25 1016.1 1016.1 0.0
30/07:30pm 16.8 10.9 9.2 61 3.9 SSE 30 48 16 26 1016.0 1016.0 0.0
30/07:27pm 16.9 11.4 9.3 61 3.9 SSE 28 48 15 26 1016.0 1016.0 0.0
30/07:00pm 17.3 10.9 8.4 56 4.6 SSE 32 44 17 24 1015.8 1015.8 0.0
30/06:30pm 18.0 11.5 8.8 55 4.8 S 33 44 18 24 1015.9 1015.9 0.0
30/06:00pm 18.4 11.5 8.9 54 4.9 SSE 35 46 19 25 1015.8 1015.8 0.0
30/05:30pm 18.8 11.9 9.0 53 5.1 SSE 35 46 19 25 1015.8 1015.8 0.0
30/05:00pm 19.5 12.8 9.7 53 5.2 SSE 35 50 19 27 1015.9 1015.9 0.0
30/04:30pm 19.7 13.1 10.1 54 5.1 SSE 35 48 19 26 1015.9 1015.9 0.0
30/04:00pm 20.0 13.4 10.1 53 5.3 S 35 48 19 26 1015.9 1015.9 0.0
30/03:30pm 20.0 13.1 10.4 54 5.2 S 37 48 20 26 1016.0 1016.0 0.0
30/03:00pm 20.2 13.5 9.7 51 5.6 S 35 44 19 24 1016.3 1016.3 0.0
30/02:30pm 20.1 13.6 9.1 49 5.8 S 33 43 18 23 1016.6 1016.6 0.0
30/02:00pm 20.6 14.3 9.8 50 5.8 S 33 43 18 23 1017.0 1017.0 0.0
30/01:30pm 21.0 15.1 10.5 51 5.7 S 32 39 17 21 1017.1 1017.1 0.0
30/01:00pm 20.3 15.0 9.8 51 5.6 S 28 37 15 20 1017.5 1017.5 0.0
30/12:30pm 21.0 15.6 10.8 52 5.6 S 30 39 16 21 1018.0 1018.0 0.0
30/12:00pm 21.1 17.2 10.9 52 5.6 S 22 33 12 18 1018.3 1018.3 0.0
30/11:30am 20.8 17.1 9.4 48 6.1 SSE 19 28 10 15 1018.6 1018.6 0.0
30/11:00am 20.0 17.0 9.3 50 5.7 SSE 15 24 8 13 1018.8 1018.8 0.0
30/10:30am 18.8 15.4 9.0 53 5.1 SSE 17 24 9 13 1019.1 1019.1 0.0
30/10:00am 18.4 15.1 9.7 57 4.6 SSE 17 24 9 13 1019.2 1019.2 0.0
30/09:30am 17.4 13.7 9.6 60 4.1 SSE 19 26 10 14 1019.2 1019.2 0.0
30/09:00am 17.5 14.3 9.9 61 4.0 SE 17 24 9 13 1019.4 1019.4 0.0
30/08:30am 16.2 13.4 10.1 67 3.2 SE 15 22 8 12 1019.4 1019.4 0.0
30/08:00am 14.8 12.2 9.4 70 2.8 SSE 13 20 7 11 1019.3 1019.3 0.0
30/07:30am 13.3 11.9 9.7 79 1.8 SSE 7 11 4 6 1019.0 1019.0 0.0
30/07:00am 10.8 9.2 8.7 87 1.0 SSE 7 9 4 5 1018.9 1018.9 0.0
30/06:30am 9.7 7.7 7.3 85 1.1 SSE 7 9 4 5 1018.8 1018.8 0.0
30/06:00am 11.3 9.6 8.5 83 1.4 SSE 7 11 4 6 1018.7 1018.7 0.0
30/05:30am 12.1 9.8 8.9 81 1.6 SE 11 15 6 8 1018.2 1018.2 0.0
30/05:00am 12.3 9.7 9.3 82 1.5 SE 13 20 7 11 1018.1 1018.1 0.0
30/04:30am 12.3 9.7 9.3 82 1.5 SE 13 19 7 10 1018.1 1018.1 0.0
30/04:00am 12.5 10.0 9.7 83 1.4 SE 13 19 7 10 1018.2 1018.2 0.0
30/03:30am 12.7 10.2 9.7 82 1.5 SE 13 19 7 10 1018.4 1018.4 0.0
30/03:00am 13.0 10.2 10.0 82 1.5 SE 15 22 8 12 1018.4 1018.4 0.0
30/02:30am 13.3 10.5 9.9 80 1.7 SE 15 24 8 13 1018.4 1018.4 0.0
30/02:00am 13.7 10.1 9.7 77 2.1 SE 19 28 10 15 1018.5 1018.5 0.0
30/01:30am 13.8 10.2 9.8 77 2.1 SE 19 30 10 16 1018.4 1018.4 0.0
30/01:00am 14.1 10.5 9.7 75 2.3 SE 19 26 10 14 1018.5 1018.5 0.0
30/12:30am 14.3 10.6 9.5 73 2.5 SE 19 28 10 15 1018.7 1018.7 0.0
30/12:00am 14.6 11.3 9.4 71 2.7 SE 17 24 9 13 1018.9 1018.9 0.0
 
Date/Time
CDT
Temp
°C
App
Temp
°C
Dew
Point
Rel
Hum
%
Delta-T
°C
Wind Press
QNH
hPa
Press
MSL
hPa
Rain
since 9 am
mm
Dir
 
Spd
km/h
Gust
km/h
Spd
kts
Gust
kts
29/11:30pm 15.0 11.0 9.1 68 3.0 SE 20 30 11 16 1018.9 1018.9 0.0
29/11:00pm 15.3 11.5 9.2 67 3.1 SE 19 28 10 15 1018.8 1018.8 0.0
29/10:30pm 15.5 12.2 9.4 67 3.1 SE 17 24 9 13 1018.9 1018.9 0.0
29/10:00pm 16.3 12.6 9.5 64 3.5 SE 19 28 10 15 1018.8 1018.8 0.0
29/09:30pm 16.9 11.8 9.1 60 4.0 SE 26 37 14 20 1018.5 1018.5 0.0
29/09:00pm 17.8 13.2 9.7 59 4.3 SE 24 37 13 20 1018.1 1018.1 0.0
29/08:30pm 18.1 12.9 11.7 66 3.5 SSE 30 43 16 23 1017.8 1017.8 0.0
29/08:00pm 18.8 14.1 11.9 64 3.8 SSE 28 39 15 21 1017.4 1017.4 0.0
29/07:30pm 19.1 15.0 12.6 66 3.6 SSE 26 37 14 20 1017.3 1017.3 0.0
29/07:00pm 19.4 14.7 13.1 67 3.6 SSE 30 44 16 24 1017.0 1017.0 0.0
29/06:30pm 20.3 15.3 13.5 65 3.9 SSE 32 43 17 23 1017.1 1017.1 0.0
29/06:00pm 20.3 14.7 13.3 64 4.0 SSE 35 46 19 25 1017.0 1017.0 0.0
29/05:30pm 20.2 14.5 12.9 63 4.1 SSE 35 46 19 25 1017.0 1017.0 0.0
29/05:00pm 20.5 14.0 13.0 62 4.3 S 39 50 21 27 1017.2 1017.2 0.0
29/04:30pm 20.9 15.2 13.1 61 4.4 S 35 52 19 28 1017.4 1017.4 0.0
29/04:00pm 20.8 14.3 12.8 60 4.5 SSE 39 54 21 29 1017.7 1017.7 0.0
29/03:30pm 21.8 15.7 12.9 57 5.1 S 37 50 20 27 1018.1 1018.1 0.0
29/03:00pm 22.4 16.8 13.2 56 5.3 SSE 35 50 19 27 1018.3 1018.3 0.0
29/02:30pm 22.7 17.4 13.2 55 5.5 S 33 46 18 25 1018.6 1018.6 0.0
29/02:00pm 22.4 17.3 13.2 56 5.3 S 32 44 17 24 1019.0 1019.0 0.0
29/01:30pm 22.5 17.2 12.4 52 5.7 S 32 44 17 24 1019.2 1019.2 0.0
29/01:00pm 23.0 18.4 13.5 55 5.5 S 30 43 16 23 1019.5 1019.5 0.0
29/12:30pm 22.5 18.0 12.7 54 5.6 S 28 39 15 21 1019.8 1019.8 0.0
29/12:00pm 23.3 19.6 9.3 41 7.5 SE 19 32 10 17 1020.1 1020.1 0.0
29/11:30am 22.6 18.5 10.1 45 6.8 SE 22 33 12 18 1020.5 1020.5 0.0
29/11:00am 21.9 17.6 10.7 49 6.1 SE 24 33 13 18 1020.7 1020.7 0.0
29/10:30am 20.9 16.8 10.1 50 5.8 SE 22 33 12 18 1020.8 1020.8 0.0
29/10:00am 20.1 15.6 10.2 53 5.3 ESE 24 33 13 18 1020.7 1020.7 0.0
29/09:30am 19.4 15.0 10.4 56 4.8 ESE 24 35 13 19 1021.0 1021.0 0.0
29/09:00am 17.8 13.2 11.1 65 3.6 ESE 26 33 14 18 1021.2 1021.2 0.0
29/08:30am 16.7 12.5 11.2 70 3.0 SE 24 35 13 19 1021.1 1021.1 0.0
29/08:00am 15.4 11.7 11.6 78 2.0 SE 22 30 12 16 1020.8 1020.8 0.0
29/07:30am 14.2 10.9 11.5 84 1.4 SE 20 30 11 16 1020.5 1020.5 0.0
29/07:00am 13.2 10.4 11.3 88 1.0 SE 17 22 9 12 1020.4 1020.4 0.0
29/06:30am 12.7 9.8 11.1 90 0.8 SE 17 22 9 12 1020.1 1020.1 0.0
29/06:00am 12.7 9.8 11.1 90 0.8 SE 17 20 9 11 1019.8 1019.8 0.0
29/05:30am 12.9 10.5 11.3 90 0.8 SE 15 20 8 11 1019.6 1019.6 0.0
29/05:00am 13.1 10.7 11.5 90 0.8 SE 15 26 8 14 1019.4 1019.4 0.0
29/04:30am 13.1 10.3 11.3 89 0.9 SE 17 24 9 13 1019.4 1019.4 0.0
29/04:00am 13.2 10.8 11.4 89 1.0 SE 15 24 8 13 1019.5 1019.5 0.0
29/03:30am 13.6 10.5 11.5 87 1.1 SE 19 26 10 14 1019.4 1019.4 0.0
29/03:00am 13.8 10.4 11.3 85 1.3 SE 20 28 11 15 1019.3 1019.3 0.0
29/02:30am 13.9 10.1 11.2 84 1.4 SE 22 32 12 17 1019.3 1019.3 0.0
29/02:00am 14.3 11.0 11.6 84 1.4 SE 20 32 11 17 1019.5 1019.5 0.0
29/01:30am 14.6 11.0 11.7 83 1.6 SE 22 32 12 17 1019.6 1019.6 0.0
29/01:00am 14.7 11.0 11.5 81 1.7 SE 22 32 12 17 1019.6 1019.6 0.0
29/12:30am 14.9 10.9 11.7 81 1.7 SE 24 33 13 18 1019.8 1019.8 0.0
29/12:00am 15.3 10.9 11.7 79 1.9 SE 26 35 14 19 1019.6 1019.6 0.0
 
Date/Time
CDT
Temp
°C
App
Temp
°C
Dew
Point
Rel
Hum
%
Delta-T
°C
Wind Press
QNH
hPa
Press
MSL
hPa
Rain
since 9 am
mm
Dir
 
Spd
km/h
Gust
km/h
Spd
kts
Gust
kts
28/11:30pm 15.6 11.3 12.0 79 2.0 SE 26 33 14 18 1019.5 1019.5 0.0
28/11:00pm 15.8 11.8 11.8 77 2.2 SE 24 35 13 19 1019.6 1019.6 0.0
28/10:30pm 16.1 11.8 12.1 77 2.2 SE 26 35 14 19 1019.3 1019.3 0.0

Other Formats:

Comma delimited format used in spreadsheet applications
http://www.bom.gov.au/fwo/IDS60801/IDS60801.95816.axf

JavaScript Object Notation format (JSON) in row-major order
http://www.bom.gov.au/fwo/IDS60801/IDS60801.95816.json